Ten Sleep, Wyoming
Current Conditions -  °F | °C
As of 4:53 AM on Thursday 23 Oct 2014 (Local Time) from KWRL Reporting Station
Clear Clear  
Wind Chill: 29°   Ceiling: Unl
Heat Index: 29°   Visibility: 10mi
Dew Point: 20°   Wind: 3mph
Humidity: 69%   Direction: 190°S
Pressure: 30.03"   Gusts: NA
Location:  44.03°N, 107.45°W
Report Text: KWRL 231053Z AUTO 19003KT 10SM CLR M02/M07 A3003 RMK AO2 SNE06B33E42 SLP171 P0000 T10171067
Loading
Personal Weather Stations






























Interactive Weather Map
Tropical Storm Tracking
New forecast layout! Learn more

10-Day Weather Forecast

Advertisements
Track Severe Weather on mobile